createdAt,value
2023-05-01T00:00:13.768Z,1010.82
2023-05-01T00:01:13.703Z,1010.81
2023-05-01T00:02:13.837Z,1010.80
2023-05-01T00:03:13.838Z,1010.77
2023-05-01T00:04:13.835Z,1010.79
2023-05-01T00:05:13.687Z,1010.77
2023-05-01T00:06:13.654Z,1010.78
2023-05-01T00:07:13.632Z,1010.75
2023-05-01T00:08:13.607Z,1010.75
2023-05-01T00:09:13.619Z,1010.72
2023-05-01T00:10:13.672Z,1010.74
2023-05-01T00:11:13.584Z,1010.71
2023-05-01T00:12:13.624Z,1010.73
2023-05-01T00:13:13.592Z,1010.71
2023-05-01T00:14:13.637Z,1010.72
2023-05-01T00:15:13.545Z,1010.69
2023-05-01T00:16:13.691Z,1010.68
2023-05-01T00:17:13.514Z,1010.69
2023-05-01T00:18:13.655Z,1010.69
2023-05-01T00:19:13.484Z,1010.64
2023-05-01T00:20:13.546Z,1010.67
2023-05-01T00:21:13.464Z,1010.65
2023-05-01T00:22:13.472Z,1010.66
2023-05-01T00:23:13.446Z,1010.67
2023-05-01T00:24:13.439Z,1010.64
2023-05-01T00:25:13.443Z,1010.63
2023-05-01T00:26:13.445Z,1010.64
2023-05-01T00:27:13.389Z,1010.65
2023-05-01T00:28:13.390Z,1010.63
2023-05-01T00:29:13.416Z,1010.64
2023-05-01T00:30:13.413Z,1010.62
2023-05-01T00:31:13.420Z,1010.60
2023-05-01T00:32:13.476Z,1010.60
2023-05-01T00:33:13.329Z,1010.58
2023-05-01T00:34:13.385Z,1010.57
2023-05-01T00:35:13.359Z,1010.59
2023-05-01T00:36:13.311Z,1010.54
2023-05-01T00:37:13.300Z,1010.57
2023-05-01T00:38:13.342Z,1010.58
2023-05-01T00:39:13.265Z,1010.57
2023-05-01T00:40:13.305Z,1010.53
2023-05-01T00:41:13.281Z,1010.55
2023-05-01T00:42:13.331Z,1010.52
2023-05-01T00:43:13.231Z,1010.53
2023-05-01T00:44:13.231Z,1010.51
2023-05-01T00:45:13.227Z,1010.53
2023-05-01T00:46:13.341Z,1010.48
2023-05-01T00:47:13.180Z,1010.53
2023-05-01T00:48:13.292Z,1010.47
2023-05-01T00:49:13.167Z,1010.46
2023-05-01T00:50:13.164Z,1010.45
2023-05-01T00:51:13.138Z,1010.45
2023-05-01T00:52:13.216Z,1010.48
2023-05-01T00:53:13.188Z,1010.44
2023-05-01T00:54:13.157Z,1010.44
2023-05-01T00:55:13.101Z,1010.44
2023-05-01T00:56:13.102Z,1010.40
2023-05-01T00:57:13.078Z,1010.38
2023-05-01T00:58:13.071Z,1010.40
2023-05-01T00:59:13.048Z,1010.36
2023-05-01T01:00:13.070Z,1010.33
2023-05-01T01:01:13.120Z,1010.37
2023-05-01T01:02:13.053Z,1010.31
2023-05-01T01:03:13.004Z,1010.31
2023-05-01T01:04:13.102Z,1010.31
2023-05-01T01:05:12.982Z,1010.28
2023-05-01T01:06:13.057Z,1010.27
2023-05-01T01:07:12.986Z,1010.24
2023-05-01T01:08:13.010Z,1010.21
2023-05-01T01:09:12.960Z,1010.18
2023-05-01T01:10:12.954Z,1010.20
2023-05-01T01:11:12.945Z,1010.19
2023-05-01T01:12:12.919Z,1010.20
2023-05-01T01:13:12.914Z,1010.17
2023-05-01T01:14:12.970Z,1010.20
2023-05-01T01:15:12.903Z,1010.17
2023-05-01T01:16:12.989Z,1010.19
2023-05-01T01:17:13.021Z,1010.13
2023-05-01T01:18:12.961Z,1010.10
2023-05-01T01:19:12.861Z,1010.16
2023-05-01T01:20:12.844Z,1010.18
2023-05-01T01:21:12.837Z,1010.13
2023-05-01T01:22:12.881Z,1010.10
2023-05-01T01:23:12.825Z,1010.11
2023-05-01T01:24:12.801Z,1010.10
2023-05-01T01:25:12.789Z,1010.09
2023-05-01T01:26:12.770Z,1010.09
2023-05-01T01:27:12.747Z,1010.09
2023-05-01T01:28:12.739Z,1010.05
2023-05-01T01:29:12.783Z,1010.09
2023-05-01T01:30:12.763Z,1010.04
2023-05-01T01:31:12.761Z,1010.10
2023-05-01T01:32:12.850Z,1010.07
2023-05-01T01:33:12.677Z,1010.05
2023-05-01T01:34:12.681Z,1010.08
2023-05-01T01:35:12.667Z,1010.05
2023-05-01T01:36:12.696Z,1010.06
2023-05-01T01:37:12.636Z,1010.02
2023-05-01T01:38:12.688Z,1010.02
2023-05-01T01:39:12.619Z,1009.99
2023-05-01T01:40:12.604Z,1009.97
2023-05-01T01:41:12.625Z,1009.95
2023-05-01T01:42:12.580Z,1009.93
2023-05-01T01:43:12.587Z,1009.91
2023-05-01T01:44:12.587Z,1009.94
2023-05-01T01:45:12.546Z,1009.89
2023-05-01T01:46:12.581Z,1009.90
2023-05-01T01:47:12.545Z,1009.94
2023-05-01T01:48:12.582Z,1009.88
2023-05-01T01:49:12.544Z,1009.86
2023-05-01T01:50:12.607Z,1009.87
2023-05-01T01:51:12.482Z,1009.87
2023-05-01T01:52:12.486Z,1009.83
2023-05-01T01:53:12.477Z,1009.81
2023-05-01T01:54:12.495Z,1009.81
2023-05-01T01:55:12.432Z,1009.79
2023-05-01T01:56:12.583Z,1009.82
2023-05-01T01:57:12.403Z,1009.83
2023-05-01T01:58:12.496Z,1009.80
2023-05-01T01:59:12.454Z,1009.80
2023-05-01T02:00:12.409Z,1009.78
2023-05-01T02:01:12.388Z,1009.81
2023-05-01T02:02:12.418Z,1009.78
2023-05-01T02:03:12.461Z,1009.78
2023-05-01T02:04:12.492Z,1009.74
2023-05-01T02:05:12.313Z,1009.74
2023-05-01T02:06:12.440Z,1009.78
2023-05-01T02:07:12.294Z,1009.71
2023-05-01T02:08:12.326Z,1009.73
2023-05-01T02:09:12.310Z,1009.71
2023-05-01T02:10:12.385Z,1009.69
2023-05-01T02:11:12.256Z,1009.69
2023-05-01T02:12:12.250Z,1009.68
2023-05-01T02:13:12.265Z,1009.66
2023-05-01T02:14:12.249Z,1009.63
2023-05-01T02:15:12.237Z,1009.64
2023-05-01T02:16:12.237Z,1009.65
2023-05-01T02:17:12.199Z,1009.64
2023-05-01T02:18:12.193Z,1009.63
2023-05-01T02:19:12.183Z,1009.62
2023-05-01T02:20:12.179Z,1009.62
2023-05-01T02:21:12.158Z,1009.63
2023-05-01T02:22:12.138Z,1009.60
2023-05-01T02:23:12.125Z,1009.58
2023-05-01T02:24:12.168Z,1009.57
2023-05-01T02:25:12.124Z,1009.56
2023-05-01T02:26:12.139Z,1009.52
2023-05-01T02:27:12.073Z,1009.54
2023-05-01T02:28:12.106Z,1009.52
2023-05-01T02:29:12.111Z,1009.57
2023-05-01T02:30:12.060Z,1009.52
2023-05-01T02:31:12.070Z,1009.51
2023-05-01T02:32:12.050Z,1009.51
2023-05-01T02:33:12.003Z,1009.48
2023-05-01T02:34:12.032Z,1009.48
2023-05-01T02:35:12.020Z,1009.49
2023-05-01T02:36:12.010Z,1009.46
2023-05-01T02:37:11.964Z,1009.45
2023-05-01T02:38:12.016Z,1009.44
2023-05-01T02:39:11.958Z,1009.42
2023-05-01T02:40:11.962Z,1009.44
2023-05-01T02:41:11.932Z,1009.44
2023-05-01T02:42:11.938Z,1009.42
2023-05-01T02:43:11.900Z,1009.39
2023-05-01T02:44:11.904Z,1009.37
2023-05-01T02:45:11.890Z,1009.34
2023-05-01T02:46:11.926Z,1009.31
2023-05-01T02:47:11.932Z,1009.30
2023-05-01T02:48:11.919Z,1009.31
2023-05-01T02:49:11.873Z,1009.25
2023-05-01T02:50:11.850Z,1009.28
2023-05-01T02:51:11.808Z,1009.25
2023-05-01T02:52:11.830Z,1009.24
2023-05-01T02:53:11.818Z,1009.25
2023-05-01T02:54:11.809Z,1009.25
2023-05-01T02:55:11.788Z,1009.26
2023-05-01T02:56:11.828Z,1009.21
2023-05-01T02:57:11.752Z,1009.22
2023-05-01T02:58:11.752Z,1009.20
2023-05-01T02:59:11.753Z,1009.19
2023-05-01T03:00:11.761Z,1009.20
2023-05-01T03:01:11.769Z,1009.20
2023-05-01T03:02:11.754Z,1009.20
2023-05-01T03:03:11.748Z,1009.17
2023-05-01T03:04:11.833Z,1009.15
2023-05-01T03:05:11.667Z,1009.12
2023-05-01T03:06:11.696Z,1009.11
2023-05-01T03:07:11.650Z,1009.09
2023-05-01T03:08:11.757Z,1009.11
2023-05-01T03:09:11.635Z,1009.08
2023-05-01T03:10:11.651Z,1009.08
2023-05-01T03:11:11.597Z,1009.07
2023-05-01T03:12:11.611Z,1009.04
2023-05-01T03:13:11.617Z,1009.03
2023-05-01T03:14:11.629Z,1009.07
2023-05-01T03:15:11.555Z,1009.02
2023-05-01T03:16:11.576Z,1009.01
2023-05-01T03:17:11.542Z,1009.01
2023-05-01T03:18:11.590Z,1008.97
2023-05-01T03:19:11.531Z,1008.96
2023-05-01T03:20:11.491Z,1008.97
2023-05-01T03:21:11.476Z,1008.97
2023-05-01T03:22:11.540Z,1008.93
2023-05-01T03:23:11.473Z,1008.93
2023-05-01T03:24:11.557Z,1008.95
2023-05-01T03:25:11.445Z,1008.88
2023-05-01T03:26:11.436Z,1008.89
2023-05-01T03:27:11.427Z,1008.89
2023-05-01T03:28:11.530Z,1008.90
2023-05-01T03:29:11.410Z,1008.87
2023-05-01T03:30:11.686Z,1008.88
2023-05-01T03:31:11.364Z,1008.89
2023-05-01T03:32:11.413Z,1008.86
2023-05-01T03:33:11.442Z,1008.84
2023-05-01T03:34:11.391Z,1008.85
2023-05-01T03:35:11.363Z,1008.85
2023-05-01T03:36:11.410Z,1008.87
2023-05-01T03:37:11.317Z,1008.82
2023-05-01T03:38:11.332Z,1008.85
2023-05-01T03:39:11.289Z,1008.87
2023-05-01T03:40:11.301Z,1008.87
2023-05-01T03:41:11.272Z,1008.82
2023-05-01T03:42:11.274Z,1008.83
2023-05-01T03:43:11.264Z,1008.81
2023-05-01T03:44:11.330Z,1008.83
2023-05-01T03:45:11.367Z,1008.80
2023-05-01T03:46:11.298Z,1008.75
2023-05-01T03:47:11.196Z,1008.77
2023-05-01T03:48:11.376Z,1008.79
2023-05-01T03:49:11.202Z,1008.76
2023-05-01T03:50:11.204Z,1008.74
2023-05-01T03:51:11.146Z,1008.77
2023-05-01T03:52:11.210Z,1008.75
2023-05-01T03:53:11.136Z,1008.74
2023-05-01T03:54:11.188Z,1008.77
2023-05-01T03:55:11.116Z,1008.74
2023-05-01T03:56:11.129Z,1008.74
2023-05-01T03:57:11.105Z,1008.74
2023-05-01T03:58:11.121Z,1008.74
2023-05-01T03:59:11.071Z,1008.73
2023-05-01T04:00:11.053Z,1008.73
2023-05-01T04:01:11.048Z,1008.71
2023-05-01T04:02:11.120Z,1008.68
2023-05-01T04:03:11.079Z,1008.72
2023-05-01T04:04:11.229Z,1008.70
2023-05-01T04:05:11.000Z,1008.68
2023-05-01T04:06:11.113Z,1008.71
2023-05-01T04:07:10.980Z,1008.71
2023-05-01T04:08:11.022Z,1008.68
2023-05-01T04:09:10.989Z,1008.68
2023-05-01T04:10:10.982Z,1008.69
2023-05-01T04:11:10.934Z,1008.69
2023-05-01T04:12:10.988Z,1008.65
2023-05-01T04:13:10.912Z,1008.67
2023-05-01T04:14:10.930Z,1008.65
2023-05-01T04:15:10.886Z,1008.65
2023-05-01T04:16:11.042Z,1008.66
2023-05-01T04:17:10.866Z,1008.68
2023-05-01T04:18:10.979Z,1008.63
2023-05-01T04:19:10.875Z,1008.65
2023-05-01T04:20:10.855Z,1008.63
2023-05-01T04:21:10.839Z,1008.62
2023-05-01T04:22:10.895Z,1008.64
2023-05-01T04:23:10.836Z,1008.66
2023-05-01T04:24:10.836Z,1008.65
2023-05-01T04:25:10.818Z,1008.63
2023-05-01T04:26:10.804Z,1008.67
2023-05-01T04:27:10.754Z,1008.63
2023-05-01T04:28:10.784Z,1008.64
2023-05-01T04:29:10.785Z,1008.65
2023-05-01T04:30:10.731Z,1008.62
2023-05-01T04:31:10.789Z,1008.62
2023-05-01T04:32:10.702Z,1008.63
2023-05-01T04:33:10.752Z,1008.68
2023-05-01T04:34:10.776Z,1008.68
2023-05-01T04:35:10.700Z,1008.71
2023-05-01T04:36:10.690Z,1008.67
2023-05-01T04:37:10.673Z,1008.67
2023-05-01T04:38:10.770Z,1008.64
2023-05-01T04:39:10.649Z,1008.63
2023-05-01T04:40:11.686Z,1008.63
2023-05-01T04:41:10.649Z,1008.58
2023-05-01T04:42:10.590Z,1008.58
2023-05-01T04:43:10.583Z,1008.57
2023-05-01T04:44:10.778Z,1008.60
2023-05-01T04:45:10.548Z,1008.58
2023-05-01T04:46:10.618Z,1008.63
2023-05-01T04:47:10.561Z,1008.63
2023-05-01T04:48:10.613Z,1008.63
2023-05-01T04:49:10.531Z,1008.65
2023-05-01T04:50:10.503Z,1008.64
2023-05-01T04:51:10.506Z,1008.66
2023-05-01T04:52:10.501Z,1008.67
2023-05-01T04:53:10.457Z,1008.66
2023-05-01T04:54:10.466Z,1008.63
2023-05-01T04:55:10.498Z,1008.69
2023-05-01T04:56:10.520Z,1008.71
2023-05-01T04:57:10.475Z,1008.66
2023-05-01T04:58:10.487Z,1008.68
2023-05-01T04:59:10.417Z,1008.65
2023-05-01T05:00:10.414Z,1008.65
2023-05-01T05:01:10.406Z,1008.63
2023-05-01T05:02:10.470Z,1008.66
2023-05-01T05:03:10.616Z,1008.67
2023-05-01T05:04:10.387Z,1008.64
2023-05-01T05:05:10.333Z,1008.63
2023-05-01T05:06:10.381Z,1008.62
2023-05-01T05:07:10.311Z,1008.64
2023-05-01T05:08:10.401Z,1008.59
2023-05-01T05:09:10.326Z,1008.64
2023-05-01T05:10:10.322Z,1008.62
2023-05-01T05:11:10.285Z,1008.64
2023-05-01T05:12:10.358Z,1008.58
2023-05-01T05:13:10.255Z,1008.60
2023-05-01T05:14:10.308Z,1008.59
2023-05-01T05:15:10.225Z,1008.58
2023-05-01T05:16:10.328Z,1008.59
2023-05-01T05:17:10.205Z,1008.62
2023-05-01T05:18:10.238Z,1008.61
2023-05-01T05:19:10.181Z,1008.59
2023-05-01T05:20:10.209Z,1008.56
2023-05-01T05:21:10.164Z,1008.55
2023-05-01T05:22:10.151Z,1008.59
2023-05-01T05:23:10.160Z,1008.57
2023-05-01T05:24:10.132Z,1008.59
2023-05-01T05:25:10.133Z,1008.59
2023-05-01T05:26:10.198Z,1008.56
2023-05-01T05:27:10.096Z,1008.54
2023-05-01T05:28:10.117Z,1008.58
2023-05-01T05:29:10.075Z,1008.57
2023-05-01T05:30:10.138Z,1008.61
2023-05-01T05:31:10.060Z,1008.64
2023-05-01T05:32:10.151Z,1008.62
2023-05-01T05:33:10.110Z,1008.64
2023-05-01T05:34:10.056Z,1008.59
2023-05-01T05:35:10.054Z,1008.62
2023-05-01T05:36:10.031Z,1008.60
2023-05-01T05:37:10.006Z,1008.61
2023-05-01T05:38:10.018Z,1008.56
2023-05-01T05:39:09.983Z,1008.59
2023-05-01T05:40:10.134Z,1008.61
2023-05-01T05:41:09.961Z,1008.62
2023-05-01T05:42:10.021Z,1008.59
2023-05-01T05:43:09.925Z,1008.54
2023-05-01T05:44:10.002Z,1008.56
2023-05-01T05:45:09.900Z,1008.54
2023-05-01T05:46:09.940Z,1008.50
2023-05-01T05:47:09.907Z,1008.54
2023-05-01T05:48:10.002Z,1008.55
2023-05-01T05:49:09.862Z,1008.56
2023-05-01T05:50:09.918Z,1008.56
2023-05-01T05:51:09.844Z,1008.56
2023-05-01T05:52:09.919Z,1008.56
2023-05-01T05:53:09.858Z,1008.56
2023-05-01T05:54:09.881Z,1008.57
2023-05-01T05:55:09.784Z,1008.53
2023-05-01T05:56:09.813Z,1008.55
2023-05-01T05:57:09.773Z,1008.52
2023-05-01T05:58:09.817Z,1008.52
2023-05-01T05:59:09.772Z,1008.53
2023-05-01T06:00:09.794Z,1008.51
2023-05-01T06:01:09.729Z,1008.50
2023-05-01T06:02:09.791Z,1008.50
2023-05-01T06:03:09.761Z,1008.51
2023-05-01T06:04:09.724Z,1008.52
2023-05-01T06:05:09.750Z,1008.51
2023-05-01T06:06:10.184Z,1008.47
2023-05-01T06:07:09.692Z,1008.48
2023-05-01T06:08:09.681Z,1008.48
2023-05-01T06:09:09.689Z,1008.49
2023-05-01T06:10:09.726Z,1008.48
2023-05-01T06:11:09.607Z,1008.48
2023-05-01T06:12:09.686Z,1008.48
2023-05-01T06:13:13.721Z,1008.48
2023-05-01T06:14:10.638Z,1008.52
2023-05-01T06:15:09.567Z,1008.51
2023-05-01T06:16:09.738Z,1008.45
2023-05-01T06:17:09.553Z,1008.45
2023-05-01T06:18:09.592Z,1008.47
2023-05-01T06:19:09.546Z,1008.47
2023-05-01T06:20:09.635Z,1008.41
2023-05-01T06:21:09.497Z,1008.43
2023-05-01T06:22:09.517Z,1008.40
2023-05-01T06:23:09.680Z,1008.41
2023-05-01T06:24:09.608Z,1008.39
2023-05-01T06:25:09.474Z,1008.41
2023-05-01T06:26:09.483Z,1008.41
2023-05-01T06:27:09.440Z,1008.43
2023-05-01T06:28:09.524Z,1008.42
2023-05-01T06:29:09.455Z,1008.43
2023-05-01T06:30:09.487Z,1008.43
2023-05-01T06:31:09.492Z,1008.45
2023-05-01T06:32:09.416Z,1008.41
2023-05-01T06:33:09.443Z,1008.42
2023-05-01T06:34:09.422Z,1008.46
2023-05-01T06:35:09.349Z,1008.47
2023-05-01T06:36:09.426Z,1008.44
2023-05-01T06:37:09.329Z,1008.46
2023-05-01T06:38:09.321Z,1008.45
2023-05-01T06:39:09.404Z,1008.39
2023-05-01T06:40:09.302Z,1008.42
2023-05-01T06:41:09.289Z,1008.43
2023-05-01T06:42:09.274Z,1008.43
2023-05-01T06:43:09.258Z,1008.43
2023-05-01T06:44:09.371Z,1008.40
2023-05-01T06:45:09.248Z,1008.40
2023-05-01T06:46:09.316Z,1008.38
2023-05-01T06:47:09.311Z,1008.34
2023-05-01T06:48:09.275Z,1008.35
2023-05-01T06:49:09.246Z,1008.32
2023-05-01T06:50:09.235Z,1008.38
2023-05-01T06:51:09.176Z,1008.34
2023-05-01T06:52:09.220Z,1008.43
2023-05-01T06:53:09.148Z,1008.39
2023-05-01T06:54:09.182Z,1008.37
2023-05-01T06:55:09.138Z,1008.38
2023-05-01T06:56:09.202Z,1008.42
2023-05-01T06:57:09.118Z,1008.43
2023-05-01T06:58:22.547Z,1008.41
2023-05-01T06:59:10.154Z,1008.42
2023-05-01T07:00:09.133Z,1008.40
2023-05-01T07:01:09.126Z,1008.39
2023-05-01T07:02:09.147Z,1008.42
2023-05-01T07:03:09.075Z,1008.42
2023-05-01T07:04:09.067Z,1008.40
2023-05-01T07:05:09.009Z,1008.39
2023-05-01T07:06:09.191Z,1008.38
2023-05-01T07:07:08.993Z,1008.34
2023-05-01T07:09:12.503Z,1008.33
2023-05-01T07:10:12.515Z,1008.36
2023-05-01T07:11:12.483Z,1008.29
2023-05-01T07:12:12.472Z,1008.32
2023-05-01T07:13:12.466Z,1008.33
2023-05-01T07:14:12.457Z,1008.31
2023-05-01T07:15:12.442Z,1008.30
2023-05-01T07:16:12.489Z,1008.27
2023-05-01T07:17:12.408Z,1008.29
2023-05-01T07:18:12.500Z,1008.23
2023-05-01T07:19:12.394Z,1008.24
2023-05-01T07:20:12.384Z,1008.23
2023-05-01T07:21:12.372Z,1008.20
2023-05-01T07:22:12.382Z,1008.25
2023-05-01T07:23:12.388Z,1008.21
2023-05-01T07:24:12.346Z,1008.21
2023-05-01T07:25:12.337Z,1008.17
2023-05-01T07:26:12.335Z,1008.20
2023-05-01T07:27:12.304Z,1008.25
2023-05-01T07:28:12.307Z,1008.24
2023-05-01T07:29:12.284Z,1008.23
2023-05-01T07:30:12.283Z,1008.21
2023-05-01T07:31:12.270Z,1008.23
2023-05-01T07:32:12.389Z,1008.23
2023-05-01T07:33:12.323Z,1008.22
2023-05-01T07:34:12.247Z,1008.19
2023-05-01T07:35:12.230Z,1008.20
2023-05-01T07:36:12.200Z,1008.19
2023-05-01T07:37:12.192Z,1008.23
2023-05-01T07:38:12.201Z,1008.18
2023-05-01T07:39:12.163Z,1008.19
2023-05-01T07:40:12.199Z,1008.20
2023-05-01T07:41:12.145Z,1008.14
2023-05-01T07:42:12.140Z,1008.17
2023-05-01T07:43:12.133Z,1008.18
2023-05-01T07:44:12.153Z,1008.16
2023-05-01T07:45:12.117Z,1008.18
2023-05-01T07:46:12.205Z,1008.13
2023-05-01T07:47:12.084Z,1008.16
2023-05-01T07:48:12.139Z,1008.14
2023-05-01T07:49:12.086Z,1008.13
2023-05-01T07:50:12.039Z,1008.13
2023-05-01T07:51:12.041Z,1008.17
2023-05-01T07:52:12.142Z,1008.15
2023-05-01T07:53:12.021Z,1008.12
2023-05-01T07:54:12.013Z,1008.11
2023-05-01T07:55:11.994Z,1008.10
2023-05-01T07:56:12.031Z,1008.09
2023-05-01T07:57:11.986Z,1008.08
2023-05-01T07:58:11.966Z,1008.08
2023-05-01T07:59:11.963Z,1008.13
2023-05-01T08:00:12.013Z,1008.10
2023-05-01T08:01:11.927Z,1008.12
2023-05-01T08:02:12.027Z,1008.13
2023-05-01T08:03:12.213Z,1008.16
2023-05-01T08:04:11.969Z,1008.18
2023-05-01T08:05:11.874Z,1008.13
2023-05-01T08:06:12.003Z,1008.09
2023-05-01T08:07:11.853Z,1008.08
2023-05-01T08:08:11.859Z,1008.07
2023-05-01T08:09:11.843Z,1008.12
2023-05-01T08:10:11.859Z,1008.09
2023-05-01T08:11:11.823Z,1008.11
2023-05-01T08:12:11.805Z,1008.12
2023-05-01T08:13:11.805Z,1008.06
2023-05-01T08:14:11.778Z,1008.08
2023-05-01T08:15:11.769Z,1008.11
2023-05-01T08:16:11.832Z,1008.11
2023-05-01T08:17:11.746Z,1008.16
2023-05-01T08:18:11.792Z,1008.16
2023-05-01T08:19:11.734Z,1008.10
2023-05-01T08:20:11.744Z,1008.09
2023-05-01T08:21:11.707Z,1008.14
2023-05-01T08:22:11.729Z,1008.11
2023-05-01T08:23:11.695Z,1008.09
2023-05-01T08:24:11.755Z,1008.08
2023-05-01T08:25:11.664Z,1008.02
2023-05-01T08:26:11.806Z,1008.07
2023-05-01T08:27:11.668Z,1008.05
2023-05-01T08:28:11.687Z,1008.04
2023-05-01T08:29:11.637Z,1008.04
2023-05-01T08:30:11.612Z,1008.01
2023-05-01T08:31:11.699Z,1007.99
2023-05-01T08:32:11.628Z,1007.98
2023-05-01T08:33:11.621Z,1007.98
2023-05-01T08:34:11.733Z,1008.05
2023-05-01T08:35:11.582Z,1008.00
2023-05-01T08:36:11.544Z,1008.01
2023-05-01T08:37:11.532Z,1008.00
2023-05-01T08:38:11.590Z,1008.03
2023-05-01T08:39:11.504Z,1007.96
2023-05-01T08:40:11.536Z,1008.00
2023-05-01T08:41:11.500Z,1007.95
2023-05-01T08:42:11.613Z,1008.01
2023-05-01T08:43:11.497Z,1007.97
2023-05-01T08:44:11.459Z,1007.99
2023-05-01T08:45:11.446Z,1008.01
2023-05-01T08:46:11.481Z,1007.95
2023-05-01T08:47:11.472Z,1007.93
2023-05-01T08:48:11.484Z,1007.92
2023-05-01T08:49:11.418Z,1007.91
2023-05-01T08:50:11.469Z,1007.91
2023-05-01T08:51:11.389Z,1007.92
2023-05-01T08:52:11.361Z,1007.89
2023-05-01T08:53:11.366Z,1007.95
2023-05-01T08:54:11.348Z,1007.93
2023-05-01T08:55:11.369Z,1007.89
2023-05-01T08:56:11.355Z,1007.89
2023-05-01T08:57:11.298Z,1007.90
2023-05-01T08:58:11.304Z,1007.90
2023-05-01T08:59:11.282Z,1007.87
2023-05-01T09:00:11.339Z,1007.90
2023-05-01T09:01:11.304Z,1007.86
2023-05-01T09:02:11.347Z,1007.92
2023-05-01T09:03:11.338Z,1007.94
2023-05-01T09:04:11.309Z,1007.92
2023-05-01T09:05:11.232Z,1007.90
2023-05-01T09:06:11.237Z,1007.90
2023-05-01T09:07:11.199Z,1007.87
2023-05-01T09:08:11.194Z,1007.90
2023-05-01T09:09:11.175Z,1007.85
2023-05-01T09:10:11.173Z,1007.88
2023-05-01T09:11:11.191Z,1007.90
2023-05-01T09:12:11.183Z,1007.91
2023-05-01T09:13:11.150Z,1007.83
2023-05-01T09:14:11.166Z,1008.00
2023-05-01T09:15:11.138Z,1007.99
2023-05-01T09:16:11.297Z,1007.92
2023-05-01T09:17:11.079Z,1007.89
2023-05-01T09:18:11.155Z,1007.87
2023-05-01T09:19:11.064Z,1007.80
2023-05-01T09:20:11.099Z,1007.90
2023-05-01T09:21:11.043Z,1007.88
2023-05-01T09:22:11.038Z,1007.84
2023-05-01T09:23:11.039Z,1007.80
2023-05-01T09:24:11.095Z,1007.76
2023-05-01T09:25:11.030Z,1007.82
2023-05-01T09:26:11.021Z,1007.71
2023-05-01T09:27:10.974Z,1007.71
2023-05-01T09:28:11.940Z,1007.80
2023-05-01T09:29:10.962Z,1007.81
2023-05-01T09:30:10.971Z,1007.86
2023-05-01T09:31:10.933Z,1007.85
2023-05-01T09:32:11.052Z,1007.83
2023-05-01T09:33:11.226Z,1007.78
2023-05-01T09:34:10.915Z,1007.76
2023-05-01T09:35:10.898Z,1007.69
2023-05-01T09:36:10.956Z,1007.60
2023-05-01T09:37:10.879Z,1007.58
2023-05-01T09:38:10.962Z,1007.53
2023-05-01T09:39:10.851Z,1007.50
2023-05-01T09:40:10.875Z,1007.53
2023-05-01T09:41:10.842Z,1007.52
2023-05-01T09:42:10.856Z,1007.48
2023-05-01T09:43:11.868Z,1007.55
2023-05-01T09:44:10.808Z,1007.50
2023-05-01T09:45:10.790Z,1007.45
2023-05-01T09:46:10.959Z,1007.45
2023-05-01T09:47:10.779Z,1007.44
2023-05-01T09:48:11.065Z,1007.39
2023-05-01T09:49:10.796Z,1007.41
2023-05-01T09:50:10.746Z,1007.40
2023-05-01T09:51:10.758Z,1007.46
2023-05-01T09:52:10.734Z,1007.40
2023-05-01T09:53:10.728Z,1007.45
2023-05-01T09:54:10.769Z,1007.43
2023-05-01T09:55:10.706Z,1007.26
2023-05-01T09:56:10.709Z,1007.36
2023-05-01T09:57:10.670Z,1007.40
2023-05-01T09:58:10.780Z,1007.37
2023-05-01T09:59:10.659Z,1007.36
2023-05-01T10:00:10.712Z,1007.31
2023-05-01T10:01:10.709Z,1007.28
2023-05-01T10:02:10.683Z,1007.22
2023-05-01T10:03:10.779Z,1007.28
2023-05-01T10:04:10.758Z,1007.22
2023-05-01T10:05:10.613Z,1007.24
2023-05-01T10:06:10.608Z,1007.28
2023-05-01T10:07:10.578Z,1007.22
2023-05-01T10:08:10.593Z,1007.21
2023-05-01T10:09:10.571Z,1007.23
2023-05-01T10:10:10.554Z,1007.19
2023-05-01T10:11:10.539Z,1007.22
2023-05-01T10:12:10.530Z,1007.19
2023-05-01T10:13:10.508Z,1007.20
2023-05-01T10:14:10.538Z,1007.24
2023-05-01T10:15:24.034Z,1007.20
2023-05-01T10:16:11.592Z,1007.22
2023-05-01T10:17:10.715Z,1007.28
2023-05-01T10:18:10.608Z,1007.25
2023-05-01T10:19:10.469Z,1007.24
2023-05-01T10:20:10.474Z,1007.24
2023-05-01T10:21:10.429Z,1007.29
2023-05-01T10:22:10.496Z,1007.29
2023-05-01T10:23:10.429Z,1007.30
2023-05-01T10:24:10.538Z,1007.28
2023-05-01T10:25:10.388Z,1007.26
2023-05-01T10:26:10.393Z,1007.27
2023-05-01T10:27:10.432Z,1007.27
2023-05-01T10:28:10.436Z,1007.25
2023-05-01T10:29:10.357Z,1007.26
2023-05-01T10:30:10.354Z,1007.23
2023-05-01T10:31:10.372Z,1007.25
2023-05-01T10:32:10.391Z,1007.32
2023-05-01T10:33:10.366Z,1007.26
2023-05-01T10:34:10.353Z,1007.26
2023-05-01T10:35:10.296Z,1007.21
2023-05-01T10:36:10.303Z,1007.23
2023-05-01T10:37:10.260Z,1007.18
2023-05-01T10:38:10.299Z,1007.18
2023-05-01T10:39:10.232Z,1007.18
2023-05-01T10:40:10.230Z,1007.13
2023-05-01T10:41:10.268Z,1007.16
2023-05-01T10:42:10.259Z,1007.11
2023-05-01T10:43:10.233Z,1007.13
2023-05-01T10:44:10.273Z,1007.18
2023-05-01T10:45:10.174Z,1007.14
2023-05-01T10:46:10.300Z,1007.28
2023-05-01T10:47:10.162Z,1007.31
2023-05-01T10:48:10.284Z,1007.09
2023-05-01T10:49:10.141Z,1007.08
2023-05-01T10:50:10.158Z,1007.26
2023-05-01T10:51:10.125Z,1007.08
2023-05-01T10:52:10.175Z,1007.08
2023-05-01T10:53:10.101Z,1007.03
2023-05-01T10:54:10.115Z,1007.01
2023-05-01T10:55:10.081Z,1007.02
2023-05-01T10:56:10.095Z,1007.03
2023-05-01T10:57:10.053Z,1006.97
2023-05-01T10:58:10.120Z,1006.98
2023-05-01T10:59:10.046Z,1007.01
2023-05-01T11:00:10.020Z,1006.98
2023-05-01T11:01:10.019Z,1006.97
2023-05-01T11:02:10.078Z,1007.00
2023-05-01T11:03:10.054Z,1007.03
2023-05-01T11:04:10.010Z,1007.01
2023-05-01T11:05:09.972Z,1006.98
2023-05-01T11:06:10.052Z,1006.96
2023-05-01T11:07:10.029Z,1006.98
2023-05-01T11:08:09.940Z,1006.99
2023-05-01T11:09:09.917Z,1006.96
2023-05-01T11:10:09.918Z,1007.01
2023-05-01T11:11:09.926Z,1007.00
2023-05-01T11:12:09.908Z,1006.98
2023-05-01T11:13:09.885Z,1006.98
2023-05-01T11:14:09.926Z,1006.98
2023-05-01T11:15:09.860Z,1006.97
2023-05-01T11:16:09.874Z,1006.96
2023-05-01T11:17:09.858Z,1006.97
2023-05-01T11:18:09.941Z,1006.97
2023-05-01T11:19:09.866Z,1006.96
2023-05-01T11:20:09.813Z,1006.99
2023-05-01T11:21:09.820Z,1006.95
2023-05-01T11:22:09.868Z,1006.94
2023-05-01T11:23:09.812Z,1006.95
2023-05-01T11:24:09.832Z,1006.93
2023-05-01T11:25:09.748Z,1006.96
2023-05-01T11:26:09.734Z,1006.96
2023-05-01T11:27:09.788Z,1006.94
2023-05-01T11:28:09.793Z,1006.92
2023-05-01T11:29:09.740Z,1006.98
2023-05-01T11:30:09.759Z,1006.94
2023-05-01T11:31:09.692Z,1006.98
2023-05-01T11:32:09.798Z,1006.97
2023-05-01T11:33:11.014Z,1006.96
2023-05-01T11:34:09.657Z,1006.94
2023-05-01T11:35:09.664Z,1006.98
2023-05-01T11:36:09.624Z,1006.99
2023-05-01T11:37:09.627Z,1007.00
2023-05-01T11:38:09.617Z,1007.00
2023-05-01T11:39:09.662Z,1007.01
2023-05-01T11:40:09.657Z,1007.02
2023-05-01T11:41:09.596Z,1006.98
2023-05-01T11:42:09.790Z,1006.98
2023-05-01T11:43:09.625Z,1006.99
2023-05-01T11:44:09.572Z,1007.00
2023-05-01T11:45:09.531Z,1006.98
2023-05-01T11:46:09.675Z,1006.96
2023-05-01T11:47:09.565Z,1006.95
2023-05-01T11:48:09.570Z,1006.96
2023-05-01T11:49:09.511Z,1006.96
2023-05-01T11:50:09.593Z,1006.94
2023-05-01T11:51:09.457Z,1006.93
2023-05-01T11:52:09.466Z,1006.89
2023-05-01T11:53:09.437Z,1006.92
2023-05-01T11:54:09.499Z,1006.95
2023-05-01T11:55:09.430Z,1006.90
2023-05-01T11:56:19.511Z,1006.92
2023-05-01T11:57:10.394Z,1006.93
2023-05-01T11:58:09.421Z,1006.95
2023-05-01T11:59:09.400Z,1007.17
2023-05-01T12:00:09.433Z,1007.18
2023-05-01T12:01:09.405Z,1006.94
2023-05-01T12:02:09.441Z,1007.08
2023-05-01T12:03:09.542Z,1007.12
2023-05-01T12:04:09.503Z,1007.21
2023-05-01T12:05:09.358Z,1007.06
2023-05-01T12:06:09.393Z,1007.14